Time;durP1;ratioP1;P1;durP2;ratioP2;P2;SDS_P1;SDS_P2;PMS_P1;PMS_P2;Temp;Humidity;BMP_temperature;BMP_pressure;BME280_temperature;BME280_humidity;BME280_pressure;Samples;Min_cycle;Max_cycle;Signal;HPM_P1;HPM_P2
2023/08/20 00:02:37;;;;;;;;;;;;;;;29.76;40.10;94622.75;4945416;28;7236;-54
2023/08/20 00:05:06;;;;;;;;;;;;;;;29.77;40.66;94627.03;4937779;28;7674;-54
2023/08/20 00:07:36;;;;;;;;;;;;;;;29.75;40.04;94624.78;4927398;29;6983;-54
2023/08/20 00:10:23;;;;;;;;;;;;;;;29.76;41.21;94625.53;4944051;28;7007;-54
2023/08/20 00:13:04;;;;;;;;;;;;;;;29.73;40.97;94621.03;4920810;28;9376;-54
2023/08/20 00:15:45;;;;;;;;;;;;;;;29.70;40.40;94622.09;4934736;29;7115;-54
2023/08/20 00:18:39;;;;;;;;;;;;;;;29.71;40.81;94620.84;4939253;28;7038;-54
2023/08/20 00:21:45;;;;;;;;;;;;;;;29.71;40.73;94623.59;4987556;28;7272;-54
2023/08/20 00:24:41;;;;;;;;;;;;;;;29.70;41.19;94622.09;4966915;28;9190;-54
2023/08/20 00:27:10;;;;;;;;;;;;;;;29.72;40.02;94625.84;4955420;28;6880;-54
2023/08/20 00:29:54;;;;;;;;;;;;;;;29.69;40.56;94620.59;4954368;28;7093;-54
2023/08/20 00:32:40;;;;;;;;;;;;;;;29.67;40.63;94625.94;4942247;28;9007;-54
2023/08/20 00:35:09;;;;;;;;;;;;;;;29.63;41.13;94617.19;4967148;28;7274;-54
2023/08/20 00:37:36;;;;;;;;;;;;;;;29.62;40.73;94626.78;4972326;28;7591;-54
2023/08/20 00:40:37;;;;;;;;;;;;;;;29.66;40.06;94627.22;4975157;28;7359;-54
2023/08/20 00:43:21;;;;;;;;;;;;;;;29.63;40.77;94622.72;4953147;28;6971;-54
2023/08/20 00:46:22;;;;;;;;;;;;;;;29.66;41.02;94630.00;4967435;28;7257;-54
2023/08/20 00:49:19;;;;;;;;;;;;;;;29.64;40.82;94633.31;4930296;29;7236;-54
2023/08/20 00:51:48;;;;;;;;;;;;;;;29.63;40.89;94639.38;4895414;29;6932;-54
2023/08/20 00:54:33;;;;;;;;;;;;;;;29.63;40.12;94645.66;4876937;29;10493;-54
2023/08/20 00:57:08;;;;;;;;;;;;;;;29.63;40.14;94644.91;4888581;29;7223;-54
2023/08/20 00:59:36;;;;;;;;;;;;;;;29.61;41.01;94636.38;4894399;29;9166;-54
2023/08/20 01:02:03;;;;;;;;;;;;;;;29.64;40.10;94638.09;4894179;29;8653;-54
2023/08/20 01:04:30;;;;;;;;;;;;;;;29.65;40.51;94645.13;4906439;29;6986;-59
2023/08/20 01:06:58;;;;;;;;;;;;;;;29.62;40.20;94638.59;4914351;29;9091;-59
2023/08/20 01:13:07;;;;;;;;;;;;;;;29.60;40.50;94638.41;4909681;29;7032;-59
2023/08/20 01:16:02;;;;;;;;;;;;;;;29.59;39.99;94636.16;4891569;29;9506;-59
2023/08/20 01:18:28;;;;;;;;;;;;;;;29.57;40.14;94642.25;4888814;29;7306;-59
2023/08/20 01:21:02;;;;;;;;;;;;;;;29.58;40.85;94645.78;4891142;29;7251;-59
2023/08/20 01:23:57;;;;;;;;;;;;;;;29.58;40.35;94646.50;4898334;29;7220;-59
2023/08/20 01:26:51;;;;;;;;;;;;;;;29.56;40.81;94645.53;4924425;28;9018;-59
2023/08/20 01:29:17;;;;;;;;;;;;;;;29.56;40.10;94651.81;4947370;28;7519;-59
2023/08/20 01:31:45;;;;;;;;;;;;;;;29.55;39.78;94646.81;4966684;28;7276;-59
2023/08/20 01:34:21;;;;;;;;;;;;;;;29.50;40.74;94642.88;4970707;28;7253;-59
2023/08/20 01:36:51;;;;;;;;;;;;;;;29.51;40.02;94644.38;4955017;28;7229;-59
2023/08/20 01:39:47;;;;;;;;;;;;;;;29.52;40.93;94647.88;4955792;28;8767;-59
2023/08/20 01:42:29;;;;;;;;;;;;;;;29.50;41.01;94644.88;4965631;28;7217;-59
2023/08/20 01:45:06;;;;;;;;;;;;;;;29.49;40.23;94646.19;4955243;28;7137;-59
2023/08/20 01:47:43;;;;;;;;;;;;;;;29.49;40.52;94637.88;4964442;28;8774;-60
2023/08/20 01:50:10;;;;;;;;;;;;;;;29.49;40.52;94640.63;4986858;28;7076;-58
2023/08/20 01:52:49;;;;;;;;;;;;;;;29.49;40.58;94646.19;4964339;28;8770;-59
2023/08/20 01:55:15;;;;;;;;;;;;;;;29.49;39.84;94638.59;4997122;28;7010;-59
2023/08/20 01:57:41;;;;;;;;;;;;;;;29.46;40.54;94642.44;5044730;28;7258;-59
2023/08/20 02:00:24;;;;;;;;;;;;;;;29.44;39.73;94641.47;5018003;28;7276;-59
2023/08/20 02:03:11;;;;;;;;;;;;;;;29.44;39.71;94647.78;5038125;28;9154;-59
2023/08/20 02:06:03;;;;;;;;;;;;;;;29.42;40.02;94642.00;5011059;28;7904;-59
2023/08/20 02:08:40;;;;;;;;;;;;;;;29.43;40.55;94637.19;4969006;28;7181;-59
2023/08/20 02:11:06;;;;;;;;;;;;;;;29.40;40.02;94644.56;4975738;28;9098;-59
2023/08/20 02:13:32;;;;;;;;;;;;;;;29.42;40.96;94655.13;4974391;28;9084;-59
2023/08/20 02:16:06;;;;;;;;;;;;;;;29.41;40.18;94651.59;4988533;28;9189;-59
2023/08/20 02:18:49;;;;;;;;;;;;;;;29.38;40.61;94652.66;4983787;28;7146;-59
2023/08/20 02:21:24;;;;;;;;;;;;;;;29.40;40.37;94644.56;4979257;28;7874;-59
2023/08/20 02:23:50;;;;;;;;;;;;;;;29.40;40.27;94650.13;4974493;28;7248;-59
2023/08/20 02:26:17;;;;;;;;;;;;;;;29.38;40.54;94649.91;4990687;28;7202;-59
2023/08/20 02:29:14;;;;;;;;;;;;;;;29.37;40.36;94647.63;4962619;28;7239;-59
2023/08/20 02:31:58;;;;;;;;;;;;;;;29.34;39.73;94640.41;4905199;29;9091;-59
2023/08/20 02:34:35;;;;;;;;;;;;;;;29.34;40.71;94646.66;4913952;29;7641;-59
2023/08/20 02:37:10;;;;;;;;;;;;;;;29.35;40.12;94652.97;4894882;29;7299;-59
2023/08/20 02:40:08;;;;;;;;;;;;;;;29.35;39.73;94648.19;4893816;29;7849;-59
2023/08/20 02:42:34;;;;;;;;;;;;;;;29.32;39.50;94640.19;4867322;29;8931;-59
2023/08/20 02:45:04;;;;;;;;;;;;;;;29.34;40.50;94645.94;4848296;29;9078;-59
2023/08/20 02:47:38;;;;;;;;;;;;;;;29.33;40.06;94653.50;4867947;29;7231;-59
2023/08/20 02:50:04;;;;;;;;;;;;;;;29.33;40.61;94661.06;4879719;29;7088;-59
2023/08/20 02:52:39;;;;;;;;;;;;;;;29.32;40.62;94665.13;4867733;29;6985;-59
2023/08/20 02:55:06;;;;;;;;;;;;;;;29.34;40.13;94668.84;4876695;29;7683;-60
2023/08/20 02:57:32;;;;;;;;;;;;;;;29.33;40.44;94663.84;4888128;29;7228;-59
2023/08/20 03:00:00;;;;;;;;;;;;;;;29.33;40.36;94655.53;4880475;29;7085;-59
2023/08/20 03:02:56;;;;;;;;;;;;;;;29.33;39.18;94661.81;4875650;29;7200;-59
2023/08/20 03:05:22;;;;;;;;;;;;;;;29.31;40.01;94655.31;4876347;29;7203;-59
2023/08/20 03:07:50;;;;;;;;;;;;;;;29.29;39.85;94666.16;4905401;28;9091;-59
2023/08/20 03:10:27;;;;;;;;;;;;;;;29.29;39.51;94655.84;4944438;28;9064;-59
2023/08/20 03:13:37;;;;;;;;;;;;;;;29.30;40.25;94662.09;4934891;28;8880;-59
2023/08/20 03:16:04;;;;;;;;;;;;;;;29.25;39.69;94654.66;4942547;29;9106;-59
2023/08/20 03:18:32;;;;;;;;;;;;;;;29.23;39.40;94660.69;4927057;28;7206;-59
2023/08/20 03:21:00;;;;;;;;;;;;;;;29.26;39.76;94664.44;5014977;28;8034;-59
2023/08/20 03:23:40;;;;;;;;;;;;;;;29.26;40.25;94665.19;5029966;28;7460;-59
2023/08/20 03:26:20;;;;;;;;;;;;;;;29.23;39.95;94663.47;5048259;28;9509;-62
2023/08/20 03:28:59;;;;;;;;;;;;;;;29.25;39.83;94668.50;5026462;28;9104;-62
2023/08/20 03:31:26;;;;;;;;;;;;;;;29.24;39.54;94675.31;5022873;28;9503;-62
2023/08/20 03:33:54;;;;;;;;;;;;;;;29.24;40.66;94669.78;5017130;28;8234;-63
2023/08/20 03:36:27;;;;;;;;;;;;;;;29.20;39.92;94675.63;5028247;28;9100;-63
2023/08/20 03:39:19;;;;;;;;;;;;;;;29.20;39.51;94683.19;5014960;28;7398;-63
2023/08/20 03:42:02;;;;;;;;;;;;;;;29.18;40.22;94677.44;5005200;28;7265;-63
2023/08/20 03:44:29;;;;;;;;;;;;;;;29.18;39.60;94683.72;5013594;28;7007;-63
2023/08/20 03:46:57;;;;;;;;;;;;;;;29.19;39.71;94681.72;5021520;28;7002;-63
2023/08/20 03:49:24;;;;;;;;;;;;;;;29.18;40.29;94685.75;5014857;28;7405;-63
2023/08/20 03:52:17;;;;;;;;;;;;;;;29.17;39.45;94698.09;5031588;28;7260;-63
2023/08/20 03:55:09;;;;;;;;;;;;;;;29.17;39.42;94693.28;5026238;28;6968;-63
2023/08/20 03:57:49;;;;;;;;;;;;;;;29.14;40.03;94694.34;5013924;28;7352;-62
2023/08/20 04:00:15;;;;;;;;;;;;;;;29.15;39.52;94695.06;5009133;28;9121;-63
2023/08/20 04:02:43;;;;;;;;;;;;;;;29.13;39.67;94698.38;5017747;28;9272;-63
2023/08/20 04:05:12;;;;;;;;;;;;;;;29.11;39.81;94703.69;5014548;28;7202;-63
2023/08/20 04:08:04;;;;;;;;;;;;;;;29.12;40.25;94707.97;5025672;28;7282;-63
2023/08/20 04:10:44;;;;;;;;;;;;;;;29.09;39.77;94706.25;5015776;28;9176;-63
2023/08/20 04:13:22;;;;;;;;;;;;;;;29.08;40.57;94705.50;5030117;28;6967;-62
2023/08/20 04:16:03;;;;;;;;;;;;;;;29.08;39.74;94719.34;5005113;28;7048;-63
2023/08/20 04:18:56;;;;;;;;;;;;;;;29.09;39.25;94720.84;5029607;28;7255;-63
2023/08/20 04:21:54;;;;;;;;;;;;;;;29.08;39.31;94716.56;5009995;28;8300;-63
2023/08/20 04:24:20;;;;;;;;;;;;;;;29.08;39.35;94721.34;4979940;28;6991;-63
2023/08/20 04:26:53;;;;;;;;;;;;;;;29.09;39.91;94715.31;4991385;28;7248;-63
2023/08/20 04:30:06;;;;;;;;;;;;;;;29.10;39.84;94718.84;4972283;28;9078;-62
2023/08/20 04:32:59;;;;;;;;;;;;;;;29.10;39.57;94716.78;4979048;28;7241;-63
2023/08/20 04:35:50;;;;;;;;;;;;;;;29.09;39.84;94715.31;4973659;28;9180;-59
2023/08/20 04:38:27;;;;;;;;;;;;;;;29.08;39.66;94721.34;4966583;28;7025;-59
2023/08/20 04:41:08;;;;;;;;;;;;;;;29.04;40.47;94712.59;4956355;28;7365;-59
2023/08/20 04:44:04;;;;;;;;;;;;;;;29.03;40.26;94714.66;4972253;28;7416;-59
2023/08/20 04:46:42;;;;;;;;;;;;;;;29.04;40.03;94707.81;4930853;29;7245;-59
2023/08/20 04:49:37;;;;;;;;;;;;;;;29.07;39.75;94708.78;4934178;29;6971;-59
2023/08/20 04:52:11;;;;;;;;;;;;;;;29.07;40.22;94717.09;4917702;29;9447;-58
2023/08/20 04:54:48;;;;;;;;;;;;;;;29.04;40.22;94716.13;4917705;29;7511;-59
2023/08/20 04:57:16;;;;;;;;;;;;;;;29.02;39.21;94726.22;4918247;29;7287;-59
2023/08/20 04:59:45;;;;;;;;;;;;;;;28.98;39.84;94715.47;4923958;28;7025;-59
2023/08/20 05:02:24;;;;;;;;;;;;;;;28.95;39.83;94713.75;4952022;28;7361;-59
2023/08/20 05:05:04;;;;;;;;;;;;;;;28.98;39.58;94714.72;4953156;28;7036;-58
2023/08/20 05:07:46;;;;;;;;;;;;;;;28.97;40.30;94711.19;4953568;28;8875;-59
2023/08/20 05:10:37;;;;;;;;;;;;;;;28.98;40.57;94707.16;4939706;28;7409;-59
2023/08/20 05:13:41;;;;;;;;;;;;;;;28.99;40.19;94702.38;4937514;28;7250;-59
2023/08/20 05:16:16;;;;;;;;;;;;;;;28.98;40.48;94704.38;4960451;28;7931;-59
2023/08/20 05:18:43;;;;;;;;;;;;;;;28.98;39.83;94709.94;4933897;28;7183;-59
2023/08/20 05:21:19;;;;;;;;;;;;;;;28.99;40.11;94716.94;4969848;28;7234;-59
2023/08/20 05:24:05;;;;;;;;;;;;;;;28.98;39.68;94715.47;5004078;28;7296;-59
2023/08/20 05:27:14;;;;;;;;;;;;;;;28.98;39.79;94709.94;5012381;28;7119;-58
2023/08/20 05:30:23;;;;;;;;;;;;;;;29.00;40.02;94715.69;5008175;28;7173;-59
2023/08/20 05:33:00;;;;;;;;;;;;;;;28.99;40.01;94711.41;5037805;28;8834;-59
2023/08/20 05:35:55;;;;;;;;;;;;;;;28.97;40.63;94713.97;5032726;28;8974;-59
2023/08/20 05:38:29;;;;;;;;;;;;;;;28.97;40.02;94719.50;5000083;28;7272;-59
2023/08/20 05:41:11;;;;;;;;;;;;;;;29.00;40.33;94707.38;4992633;28;7204;-59
2023/08/20 05:43:40;;;;;;;;;;;;;;;29.02;40.30;94715.91;4992519;28;7017;-59
2023/08/20 05:46:21;;;;;;;;;;;;;;;28.96;40.28;94706.94;4992959;28;7144;-55
2023/08/20 05:48:51;;;;;;;;;;;;;;;29.00;39.97;94712.91;5008113;28;9154;-55
2023/08/20 05:51:17;;;;;;;;;;;;;;;29.00;39.92;94712.91;4974780;28;7218;-55
2023/08/20 05:53:53;;;;;;;;;;;;;;;28.98;40.49;94712.69;4989982;28;8149;-55
2023/08/20 05:57:01;;;;;;;;;;;;;;;29.02;39.71;94715.16;4983445;28;8038;-55
2023/08/20 05:59:48;;;;;;;;;;;;;;;29.00;39.74;94707.38;4929865;29;7230;-55
2023/08/20 06:02:22;;;;;;;;;;;;;;;29.02;39.88;94707.59;4933528;29;9109;-55
2023/08/20 06:05:08;;;;;;;;;;;;;;;29.02;40.22;94709.63;4932774;29;7097;-55
2023/08/20 06:07:34;;;;;;;;;;;;;;;28.99;39.71;94711.41;4917266;29;9315;-55
2023/08/20 06:10:36;;;;;;;;;;;;;;;29.00;40.44;94712.16;4912196;29;7116;-55
2023/08/20 06:13:23;;;;;;;;;;;;;;;29.00;40.81;94718.47;4914424;29;7264;-55
2023/08/20 06:15:50;;;;;;;;;;;;;;;29.01;40.13;94725.47;4948818;28;7524;-55
2023/08/20 06:18:17;;;;;;;;;;;;;;;29.02;40.80;94726.22;4952582;28;8763;-55
2023/08/20 06:20:54;;;;;;;;;;;;;;;28.97;40.19;94725.03;4954022;28;7991;-55
2023/08/20 06:23:22;;;;;;;;;;;;;;;28.99;40.96;94736.34;4949655;28;7252;-55
2023/08/20 06:26:02;;;;;;;;;;;;;;;29.00;40.82;94737.09;4952264;28;9091;-55
2023/08/20 06:28:30;;;;;;;;;;;;;;;29.01;41.17;94741.38;4950297;28;7232;-55
2023/08/20 06:31:09;;;;;;;;;;;;;;;28.98;41.33;94734.84;4995037;28;7580;-55
2023/08/20 06:33:39;;;;;;;;;;;;;;;29.01;41.11;94739.31;5019229;28;7180;-55
2023/08/20 06:36:12;;;;;;;;;;;;;;;29.02;40.92;94735.28;5010705;28;7108;-56
2023/08/20 06:39:15;;;;;;;;;;;;;;;29.03;42.23;94744.34;5010887;28;7526;-55
2023/08/20 06:41:52;;;;;;;;;;;;;;;29.02;41.20;94732.53;4950996;28;7366;-55
2023/08/20 06:44:18;;;;;;;;;;;;;;;29.05;41.99;94748.09;4989292;28;8482;-55
2023/08/20 06:47:18;;;;;;;;;;;;;;;29.08;41.44;94737.97;4954562;28;7249;-55
2023/08/20 06:49:55;;;;;;;;;;;;;;;29.07;41.92;94728.19;4946145;28;7010;-54
2023/08/20 06:52:22;;;;;;;;;;;;;;;29.09;41.86;94731.16;4944152;28;7243;-55
2023/08/20 06:54:55;;;;;;;;;;;;;;;29.05;41.57;94725.19;4938791;28;6857;-64
2023/08/20 06:57:23;;;;;;;;;;;;;;;29.04;41.66;94724.44;4946839;28;7074;-64
2023/08/20 06:59:59;;;;;;;;;;;;;;;29.08;42.64;94738.72;4934426;28;7105;-64
2023/08/20 07:02:26;;;;;;;;;;;;;;;29.08;42.44;94724.88;4931193;28;7515;-63
2023/08/20 07:04:53;;;;;;;;;;;;;;;29.06;43.19;94726.66;4949122;28;8803;-63
2023/08/20 07:07:19;;;;;;;;;;;;;;;29.06;42.72;94729.44;4937001;28;7223;-63
2023/08/20 07:09:50;;;;;;;;;;;;;;;29.08;42.95;94726.88;4932708;28;7560;-63
2023/08/20 07:12:47;;;;;;;;;;;;;;;29.07;42.47;94733.72;4934265;28;7348;-63
2023/08/20 07:15:33;;;;;;;;;;;;;;;29.06;42.72;94727.44;4897069;29;8878;-63
2023/08/20 07:18:00;;;;;;;;;;;;;;;29.06;42.08;94735.72;4880267;29;6986;-63
2023/08/20 07:20:35;;;;;;;;;;;;;;;29.05;43.18;94731.47;4895709;29;7539;-63
2023/08/20 07:23:01;;;;;;;;;;;;;;;29.05;42.61;94739.03;4893749;29;8802;-63
2023/08/20 07:25:31;;;;;;;;;;;;;;;29.04;42.38;94735.50;4902184;29;9047;-63
2023/08/20 07:28:14;;;;;;;;;;;;;;;29.13;42.33;94745.47;4915986;29;10257;-64
2023/08/20 07:30:40;;;;;;;;;;;;;;;29.14;42.48;94743.44;4918835;29;8737;-62
2023/08/20 07:33:09;;;;;;;;;;;;;;;29.14;42.79;94752.50;4925571;29;6986;-63
2023/08/20 07:35:37;;;;;;;;;;;;;;;29.15;42.00;94750.47;4933832;28;8627;-63
2023/08/20 07:38:06;;;;;;;;;;;;;;;29.15;42.31;94751.22;4932018;29;9088;-64
2023/08/20 07:40:32;;;;;;;;;;;;;;;29.15;42.27;94745.69;4915878;29;9544;-63
2023/08/20 07:42:58;;;;;;;;;;;;;;;29.17;41.82;94742.44;4946076;28;9089;-64
2023/08/20 07:45:24;;;;;;;;;;;;;;;29.17;42.30;94747.97;4910526;29;9056;-64
2023/08/20 07:48:20;;;;;;;;;;;;;;;29.18;42.53;94749.44;4918290;29;7442;-64
2023/08/20 07:50:47;;;;;;;;;;;;;;;29.17;42.24;94745.19;4924383;28;8482;-63
2023/08/20 07:53:15;;;;;;;;;;;;;;;29.18;42.27;94752.22;5010081;28;7226;-64
2023/08/20 07:55:42;;;;;;;;;;;;;;;29.16;42.38;94755.53;5006160;28;7301;-63
2023/08/20 07:58:08;;;;;;;;;;;;;;;29.13;42.74;94751.00;5008268;28;7182;-64
2023/08/20 08:00:39;;;;;;;;;;;;;;;29.18;41.77;94755.00;5004750;28;7038;-64
2023/08/20 08:03:05;;;;;;;;;;;;;;;29.17;42.27;94759.06;5007063;28;7466;-64
2023/08/20 08:05:31;;;;;;;;;;;;;;;29.15;42.27;94767.09;5026521;28;9397;-64
2023/08/20 08:07:57;;;;;;;;;;;;;;;29.14;43.22;94765.59;5017506;28;7276;-64
2023/08/20 08:10:27;;;;;;;;;;;;;;;29.09;43.02;94759.63;5021169;28;8020;-63
2023/08/20 08:12:53;;;;;;;;;;;;;;;29.13;42.59;94764.09;5007691;28;7328;-64
2023/08/20 08:15:27;;;;;;;;;;;;;;;29.10;42.80;94774.94;5009671;28;6981;-64
2023/08/20 08:17:54;;;;;;;;;;;;;;;29.14;42.90;94776.69;5023972;28;9226;-63
2023/08/20 08:20:22;;;;;;;;;;;;;;;29.13;43.51;94780.72;5038114;28;7400;-64
2023/08/20 08:22:50;;;;;;;;;;;;;;;29.14;43.22;94782.22;5013861;28;7182;-64
2023/08/20 08:25:29;;;;;;;;;;;;;;;29.14;43.09;94780.22;5011432;28;8733;-64
2023/08/20 08:28:01;;;;;;;;;;;;;;;29.14;43.00;94771.91;5024848;28;7180;-63
2023/08/20 08:30:40;;;;;;;;;;;;;;;29.15;42.75;94778.91;5010169;28;8990;-63
2023/08/20 08:33:07;;;;;;;;;;;;;;;29.17;43.71;94775.69;5042490;28;7403;-64
2023/08/20 08:35:50;;;;;;;;;;;;;;;29.16;42.61;94785.22;5011444;28;9121;-64
2023/08/20 08:38:22;;;;;;;;;;;;;;;29.14;43.32;94771.16;5010196;28;7424;-64
2023/08/20 08:41:25;;;;;;;;;;;;;;;29.16;43.48;94788.00;5007940;28;7182;-64
2023/08/20 08:43:55;;;;;;;;;;;;;;;29.16;42.51;94782.44;5003424;28;8900;-64
2023/08/20 08:46:48;;;;;;;;;;;;;;;29.16;42.91;94779.69;4974703;28;7261;-64
2023/08/20 08:49:19;;;;;;;;;;;;;;;29.15;43.80;94778.91;4972527;28;7210;-64
2023/08/20 08:52:15;;;;;;;;;;;;;;;29.18;42.91;94768.84;4969470;28;7839;-65
2023/08/20 08:54:56;;;;;;;;;;;;;;;29.16;43.12;94776.91;4932378;29;9361;-65
2023/08/20 08:57:22;;;;;;;;;;;;;;;29.19;43.43;94786.97;4918149;29;7058;-65
2023/08/20 08:59:53;;;;;;;;;;;;;;;29.17;42.89;94781.22;4933416;29;7145;-66
2023/08/20 09:02:19;;;;;;;;;;;;;;;29.17;42.56;94781.22;4912994;29;9042;-65
2023/08/20 09:04:58;;;;;;;;;;;;;;;29.18;43.42;94777.91;4929297;29;7240;-65
2023/08/20 09:07:26;;;;;;;;;;;;;;;29.19;43.42;94776.63;4928535;28;7222;-65
2023/08/20 09:10:02;;;;;;;;;;;;;;;29.19;42.99;94770.34;4930143;29;7177;-65
2023/08/20 09:12:34;;;;;;;;;;;;;;;29.18;42.63;94772.38;4930219;29;7356;-65
2023/08/20 09:15:02;;;;;;;;;;;;;;;29.19;42.99;94770.34;4928523;28;9040;-61
2023/08/20 09:17:41;;;;;;;;;;;;;;;29.18;43.33;94768.84;4930191;28;9190;-61
2023/08/20 09:20:45;;;;;;;;;;;;;;;29.19;43.05;94773.84;4952528;28;7077;-61
2023/08/20 09:23:13;;;;;;;;;;;;;;;29.19;43.44;94770.34;4943625;28;7095;-61
2023/08/20 09:25:53;;;;;;;;;;;;;;;29.20;43.76;94772.59;4958113;28;7121;-62
2023/08/20 09:28:20;;;;;;;;;;;;;;;29.18;43.35;94766.84;4961515;28;7341;-61
2023/08/20 09:30:58;;;;;;;;;;;;;;;29.20;43.83;94769.06;4984229;28;7035;-62
2023/08/20 09:33:32;;;;;;;;;;;;;;;29.21;42.64;94776.84;5039931;28;7409;-62
2023/08/20 09:35:58;;;;;;;;;;;;;;;29.22;42.89;94786.66;5025539;28;7259;-62
2023/08/20 09:38:44;;;;;;;;;;;;;;;29.24;43.56;94791.66;4992733;28;7016;-62
2023/08/20 09:41:38;;;;;;;;;;;;;;;29.27;42.98;94793.41;5025152;28;7014;-62
2023/08/20 09:44:17;;;;;;;;;;;;;;;29.26;43.45;94795.41;5024975;28;8294;-62
2023/08/20 09:46:45;;;;;;;;;;;;;;;29.25;43.12;94793.19;5005158;28;7344;-62
2023/08/20 09:49:19;;;;;;;;;;;;;;;29.26;43.11;94797.44;5008645;28;7271;-62
2023/08/20 09:52:00;;;;;;;;;;;;;;;29.27;42.70;94793.41;5000566;28;9097;-62
2023/08/20 09:55:25;;;;;;;;;;;;;;;29.28;43.84;94795.63;5010480;28;9490;-61
2023/08/20 09:58:15;;;;;;;;;;;;;;;29.29;43.67;94799.16;5019122;28;7241;-61
2023/08/20 10:01:00;;;;;;;;;;;;;;;29.28;43.45;94792.88;5019484;28;7231;-60
2023/08/20 10:03:41;;;;;;;;;;;;;;;29.26;43.29;94789.13;5051441;28;7486;-61
2023/08/20 10:06:20;;;;;;;;;;;;;;;29.30;43.83;94790.31;5026662;28;9056;-61
2023/08/20 10:08:57;;;;;;;;;;;;;;;29.35;43.40;94785.97;5040922;28;7001;-61
2023/08/20 10:11:29;;;;;;;;;;;;;;;29.35;42.94;94786.72;5027734;28;9128;-60
2023/08/20 10:14:01;;;;;;;;;;;;;;;29.41;43.32;94789.41;5039319;28;8540;-61
2023/08/20 10:16:28;;;;;;;;;;;;;;;29.42;43.51;94790.91;5027946;28;9144;-61
2023/08/20 10:19:01;;;;;;;;;;;;;;;29.43;43.54;94795.16;5021143;28;8471;-62
2023/08/20 10:21:44;;;;;;;;;;;;;;;29.46;42.67;94796.88;5040808;28;7238;-62
2023/08/20 10:24:19;;;;;;;;;;;;;;;29.42;43.68;94793.69;5044059;28;8311;-61
2023/08/20 10:27:11;;;;;;;;;;;;;;;29.42;43.10;94790.91;5018923;28;6993;-61
2023/08/20 10:29:46;;;;;;;;;;;;;;;29.44;43.38;94793.91;5026158;28;7354;-61
2023/08/20 10:32:56;;;;;;;;;;;;;;;29.48;43.81;94794.34;5017551;28;9443;-61
2023/08/20 10:36:06;;;;;;;;;;;;;;;29.50;43.78;94794.56;5008153;28;9594;-61
2023/08/20 10:39:04;;;;;;;;;;;;;;;29.49;44.16;94793.06;4976423;28;7236;-61
2023/08/20 10:41:30;;;;;;;;;;;;;;;29.51;44.57;94793.28;4971438;28;9070;-61
2023/08/20 10:44:09;;;;;;;;;;;;;;;29.52;44.03;94783.69;4969498;28;7321;-61
2023/08/20 10:46:54;;;;;;;;;;;;;;;29.54;44.42;94792.22;4976501;28;7058;-61
2023/08/20 10:49:21;;;;;;;;;;;;;;;29.54;44.08;94789.44;4990440;28;6964;-61
2023/08/20 10:52:02;;;;;;;;;;;;;;;29.54;44.56;94776.34;4965309;28;7228;-61
2023/08/20 10:54:31;;;;;;;;;;;;;;;29.54;44.20;94781.13;4966376;28;9415;-61
2023/08/20 10:57:08;;;;;;;;;;;;;;;29.57;43.81;94780.84;4974810;28;7176;-60
2023/08/20 11:00:15;;;;;;;;;;;;;;;29.61;43.02;94780.53;4976656;28;8029;-61
2023/08/20 11:02:52;;;;;;;;;;;;;;;29.61;43.07;94778.50;4945579;28;6996;-61
2023/08/20 11:05:23;;;;;;;;;;;;;;;29.65;43.08;94780.97;4938243;28;7929;-61
2023/08/20 11:07:59;;;;;;;;;;;;;;;29.68;43.72;94782.69;4929351;28;8972;-61
2023/08/20 11:10:39;;;;;;;;;;;;;;;29.68;43.04;94780.66;4939026;28;7314;-61
2023/08/20 11:13:18;;;;;;;;;;;;;;;29.71;42.87;94779.59;4968914;28;7029;-61
2023/08/20 11:16:00;;;;;;;;;;;;;;;29.71;43.98;94778.88;4967439;28;7236;-61
2023/08/20 11:18:36;;;;;;;;;;;;;;;29.72;43.64;94777.56;4965784;28;9099;-61
2023/08/20 11:21:05;;;;;;;;;;;;;;;29.73;43.83;94779.09;4971706;28;9085;-61
2023/08/20 11:23:55;;;;;;;;;;;;;;;29.75;43.89;94774.50;4969024;28;9247;-61
2023/08/20 11:26:28;;;;;;;;;;;;;;;29.77;43.87;94774.75;4964626;28;7359;-62
2023/08/20 11:29:24;;;;;;;;;;;;;;;29.80;43.54;94778.47;4972093;28;7010;-62
2023/08/20 11:31:53;;;;;;;;;;;;;;;29.84;43.83;94775.41;4956154;28;6913;-61
2023/08/20 11:34:19;;;;;;;;;;;;;;;29.86;43.99;94779.16;4970719;28;7331;-62
2023/08/20 11:36:56;;;;;;;;;;;;;;;29.89;43.20;94771.75;4984481;28;8163;-62
2023/08/20 11:39:24;;;;;;;;;;;;;;;29.91;43.43;94771.97;5011232;28;9311;-61
2023/08/20 11:41:50;;;;;;;;;;;;;;;29.92;43.29;94776.25;5003680;28;7033;-61
2023/08/20 11:44:43;;;;;;;;;;;;;;;29.95;43.03;94775.94;5010451;28;7089;-62
2023/08/20 11:47:18;;;;;;;;;;;;;;;29.96;43.48;94768.38;5012515;28;7714;-62
2023/08/20 11:50:01;;;;;;;;;;;;;;;29.96;43.44;94766.34;5009622;28;9057;-62
2023/08/20 11:52:48;;;;;;;;;;;;;;;29.98;43.91;94763.03;5015045;28;8658;-62
2023/08/20 11:55:30;;;;;;;;;;;;;;;29.98;42.79;94758.25;5010026;28;7341;-62
2023/08/20 11:58:28;;;;;;;;;;;;;;;30.01;44.01;94759.97;5011122;28;8790;-62
2023/08/20 12:00:58;;;;;;;;;;;;;;;30.04;43.84;94764.44;4972694;28;7467;-62
2023/08/20 12:03:44;;;;;;;;;;;;;;;30.04;44.03;94756.13;4974496;28;8732;-62
2023/08/20 12:06:30;;;;;;;;;;;;;;;30.07;43.93;94755.06;4995906;28;9385;-62
2023/08/20 12:08:58;;;;;;;;;;;;;;;30.07;43.93;94762.63;4982624;28;7852;-62
2023/08/20 12:11:33;;;;;;;;;;;;;;;30.05;44.24;94751.31;4987937;28;7242;-62
2023/08/20 12:13:59;;;;;;;;;;;;;;;30.07;43.86;94757.84;4979891;28;8736;-61
2023/08/20 12:16:27;;;;;;;;;;;;;;;30.11;44.03;94754.72;4979480;28;7331;-62
2023/08/20 12:19:14;;;;;;;;;;;;;;;30.12;43.12;94754.22;4997481;28;9061;-61
2023/08/20 12:21:44;;;;;;;;;;;;;;;30.12;43.04;94751.44;4969836;28;9461;-62
2023/08/20 12:24:12;;;;;;;;;;;;;;;30.13;43.02;94747.38;4967536;28;8208;-60
2023/08/20 12:26:41;;;;;;;;;;;;;;;30.13;42.97;94744.59;4970543;28;9434;-61
2023/08/20 12:29:40;;;;;;;;;;;;;;;30.15;42.72;94747.59;4966794;28;9167;-62
2023/08/20 12:32:15;;;;;;;;;;;;;;;30.13;42.92;94739.06;4932425;29;8512;-61
2023/08/20 12:34:51;;;;;;;;;;;;;;;30.15;43.06;94744.81;4912344;29;9528;-61
2023/08/20 12:37:49;;;;;;;;;;;;;;;30.18;43.69;94746.53;4935415;28;7285;-61
2023/08/20 12:40:28;;;;;;;;;;;;;;;30.16;44.45;94740.78;4947196;28;7204;-61
2023/08/20 12:42:54;;;;;;;;;;;;;;;30.18;44.31;94740.22;4947354;28;8774;-61
2023/08/20 12:45:20;;;;;;;;;;;;;;;30.23;43.98;94745.66;4953650;28;9076;-62
2023/08/20 12:47:59;;;;;;;;;;;;;;;30.25;44.17;94740.34;4951572;28;7275;-62
2023/08/20 12:50:48;;;;;;;;;;;;;;;30.26;43.80;94739.06;4949811;28;7355;-62
2023/08/20 12:53:16;;;;;;;;;;;;;;;30.25;42.83;94743.13;4951326;28;9071;-62
2023/08/20 12:56:01;;;;;;;;;;;;;;;30.25;43.30;94734.81;4954415;28;7226;-61
2023/08/20 12:58:37;;;;;;;;;;;;;;;30.21;43.02;94726.03;4956661;28;9464;-62
2023/08/20 13:01:04;;;;;;;;;;;;;;;30.21;43.16;94728.81;4953116;28;9447;-62
2023/08/20 13:03:38;;;;;;;;;;;;;;;30.25;43.05;94722.94;4940229;28;7223;-62
2023/08/20 13:06:21;;;;;;;;;;;;;;;30.26;43.82;94724.44;4951916;28;7243;-61
2023/08/20 13:08:47;;;;;;;;;;;;;;;30.25;43.92;94720.19;4966198;28;7337;-63
2023/08/20 13:11:25;;;;;;;;;;;;;;;30.28;43.76;94730.19;4961710;28;7014;-63
2023/08/20 13:14:22;;;;;;;;;;;;;;;30.31;43.10;94723.59;4987261;28;9088;-63
2023/08/20 13:17:22;;;;;;;;;;;;;;;30.31;42.96;94727.13;4998412;28;7421;-63
2023/08/20 13:20:01;;;;;;;;;;;;;;;30.29;42.88;94718.56;5005107;28;7000;-63
2023/08/20 13:22:29;;;;;;;;;;;;;;;30.31;43.04;94721.59;5006737;28;9146;-64
2023/08/20 13:24:56;;;;;;;;;;;;;;;30.32;43.73;94714.03;5015340;28;7226;-63
2023/08/20 13:27:31;;;;;;;;;;;;;;;30.33;42.76;94713.47;5007590;28;7197;-64
2023/08/20 13:30:17;;;;;;;;;;;;;;;30.34;43.52;94723.28;5041077;28;9098;-63
2023/08/20 13:33:14;;;;;;;;;;;;;;;30.35;43.34;94713.69;5018546;28;7396;-63
2023/08/20 13:35:55;;;;;;;;;;;;;;;30.33;43.34;94712.72;5030353;28;9392;-63
2023/08/20 13:38:22;;;;;;;;;;;;;;;30.36;43.21;94703.34;5041314;28;7218;-62
2023/08/20 13:40:49;;;;;;;;;;;;;;;30.35;43.04;94705.34;5029507;28;7226;-63
2023/08/20 13:43:24;;;;;;;;;;;;;;;30.36;42.89;94703.34;5024027;28;7459;-62
2023/08/20 13:45:50;;;;;;;;;;;;;;;30.40;43.40;94712.06;5036206;28;7274;-62
2023/08/20 13:48:17;;;;;;;;;;;;;;;30.46;42.78;94713.47;5038663;28;7260;-62
2023/08/20 13:50:54;;;;;;;;;;;;;;;30.51;43.57;94704.25;5022443;28;8771;-63
2023/08/20 13:53:22;;;;;;;;;;;;;;;30.59;42.93;94709.16;5050122;28;6995;-63
2023/08/20 13:55:52;;;;;;;;;;;;;;;30.62;43.03;94702.53;5044753;28;8834;-64
2023/08/20 13:58:18;;;;;;;;;;;;;;;30.61;42.49;94703.81;5025424;28;8749;-64